createdAt,value
2023-05-09T00:00:49.401Z,17.06
2023-05-09T00:10:50.811Z,17.08
2023-05-09T00:20:52.278Z,17.00
2023-05-09T00:30:54.000Z,16.98
2023-05-09T00:40:55.403Z,16.88
2023-05-09T00:50:56.872Z,16.75
2023-05-09T01:00:59.129Z,16.61
2023-05-09T01:11:33.173Z,16.63
2023-05-09T01:21:35.474Z,16.58
2023-05-09T01:31:41.077Z,16.54
2023-05-09T01:41:42.483Z,16.56
2023-05-09T01:51:45.049Z,16.62
2023-05-09T02:01:47.420Z,16.68
2023-05-09T02:11:48.889Z,16.73
2023-05-09T02:21:50.597Z,16.69
2023-05-09T02:31:53.157Z,16.72
2023-05-09T02:41:54.581Z,16.75
2023-05-09T02:51:56.026Z,16.77
2023-05-09T03:01:57.694Z,16.78
2023-05-09T03:11:59.188Z,16.81
2023-05-09T03:22:00.534Z,16.74
2023-05-09T03:32:01.908Z,16.77
2023-05-09T03:42:03.402Z,16.82
2023-05-09T03:52:04.935Z,16.88
2023-05-09T04:02:06.399Z,16.86
2023-05-09T04:12:07.852Z,16.85
2023-05-09T04:22:09.375Z,16.86
2023-05-09T04:32:10.775Z,16.90
2023-05-09T04:42:12.191Z,16.91
2023-05-09T04:52:13.721Z,16.90
2023-05-09T05:02:15.232Z,16.94
2023-05-09T05:12:16.656Z,16.97
2023-05-09T05:22:18.681Z,16.99
2023-05-09T05:32:20.195Z,17.02
2023-05-09T05:42:21.762Z,17.07
2023-05-09T05:52:23.110Z,17.17
2023-05-09T06:02:24.515Z,17.28
2023-05-09T06:12:27.913Z,17.42
2023-05-09T06:22:29.524Z,17.60
2023-05-09T06:32:30.967Z,17.79
2023-05-09T06:42:33.763Z,18.07
2023-05-09T06:52:35.699Z,18.38
2023-05-09T07:02:41.451Z,18.66
2023-05-09T07:12:42.994Z,18.80
2023-05-09T07:22:44.586Z,19.13
2023-05-09T07:32:46.101Z,19.46
2023-05-09T07:42:49.824Z,19.60
2023-05-09T07:52:52.734Z,19.59
2023-05-09T08:02:54.483Z,19.69
2023-05-09T08:12:56.770Z,19.85
2023-05-09T08:22:58.230Z,20.04
2023-05-09T08:32:59.737Z,20.35
2023-05-09T08:43:01.615Z,20.70
2023-05-09T08:53:03.483Z,20.87
2023-05-09T09:03:07.679Z,20.91
2023-05-09T09:13:12.354Z,21.09
2023-05-09T09:23:18.969Z,21.13
2023-05-09T09:33:24.872Z,21.44
2023-05-09T09:43:32.032Z,21.47
2023-05-09T09:53:42.753Z,21.52
2023-05-09T10:03:46.217Z,21.56
2023-05-09T10:13:47.866Z,21.68
2023-05-09T10:23:52.458Z,21.63
2023-05-09T10:33:56.068Z,21.85
2023-05-09T10:43:59.049Z,21.88
2023-05-09T10:54:00.526Z,21.97
2023-05-09T11:04:09.889Z,22.14
2023-05-09T11:14:29.225Z,21.96
2023-05-09T11:24:32.642Z,22.43
2023-05-09T11:34:34.502Z,22.68
2023-05-09T11:44:36.335Z,22.87
2023-05-09T11:54:40.891Z,22.87
2023-05-09T12:04:42.738Z,23.06
2023-05-09T12:14:44.299Z,22.91
2023-05-09T12:24:45.653Z,23.06
2023-05-09T12:34:51.553Z,23.02
2023-05-09T12:44:53.686Z,23.15
2023-05-09T12:54:55.218Z,22.87
2023-05-09T13:05:10.938Z,22.62
2023-05-09T13:15:12.756Z,22.51
2023-05-09T13:25:15.966Z,22.20
2023-05-09T13:35:18.069Z,21.86
2023-05-09T13:45:19.630Z,21.18
2023-05-09T13:55:21.622Z,20.66
2023-05-09T14:05:23.200Z,20.49
2023-05-09T14:15:24.749Z,20.21
2023-05-09T14:25:26.735Z,20.02
2023-05-09T14:35:28.403Z,19.91
2023-05-09T14:45:30.393Z,19.87
2023-05-09T14:55:31.889Z,19.69
2023-05-09T15:05:33.294Z,19.65
2023-05-09T15:15:34.852Z,19.34
2023-05-09T15:25:37.653Z,19.14
2023-05-09T15:35:39.159Z,18.97
2023-05-09T15:45:45.462Z,18.69
2023-05-09T15:55:47.118Z,18.54
2023-05-09T16:05:48.554Z,18.39
2023-05-09T16:15:50.827Z,18.26
2023-05-09T16:25:52.175Z,18.08
2023-05-09T16:35:53.518Z,18.02
2023-05-09T16:45:55.237Z,17.91
2023-05-09T16:55:56.954Z,17.88
2023-05-09T17:05:58.413Z,17.72
2023-05-09T17:16:00.303Z,17.61
2023-05-09T17:26:01.817Z,17.50
2023-05-09T17:36:03.673Z,17.43
2023-05-09T17:46:05.136Z,17.25
2023-05-09T17:56:06.711Z,17.12
2023-05-09T18:06:08.078Z,16.98
2023-05-09T18:16:09.498Z,16.92
2023-05-09T18:26:11.169Z,16.84
2023-05-09T18:36:12.731Z,16.58
2023-05-09T18:46:20.846Z,16.47
2023-05-09T18:56:22.506Z,16.34
2023-05-09T19:06:24.242Z,16.15
2023-05-09T19:16:26.532Z,16.06
2023-05-09T19:26:28.050Z,15.95
2023-05-09T19:36:29.588Z,15.91
2023-05-09T19:46:31.238Z,16.04
2023-05-09T19:56:32.648Z,15.89
2023-05-09T20:06:34.070Z,15.94
2023-05-09T20:16:35.909Z,15.95
2023-05-09T20:26:37.420Z,15.87
2023-05-09T20:36:38.999Z,15.81
2023-05-09T20:46:40.579Z,15.78
2023-05-09T20:56:41.932Z,15.71
2023-05-09T21:06:43.649Z,15.66
2023-05-09T21:16:46.427Z,15.65
2023-05-09T21:26:47.992Z,15.49
2023-05-09T21:36:49.452Z,15.49
2023-05-09T21:46:50.931Z,15.33
2023-05-09T21:56:52.355Z,15.29
2023-05-09T22:06:53.720Z,15.31
2023-05-09T22:16:55.658Z,15.31
2023-05-09T22:26:56.990Z,15.32
2023-05-09T22:36:58.383Z,15.24
2023-05-09T22:46:59.819Z,15.19
2023-05-09T22:57:01.232Z,15.27
2023-05-09T23:07:02.576Z,15.24
2023-05-09T23:17:04.082Z,15.13
2023-05-09T23:27:05.432Z,15.22
2023-05-09T23:37:07.397Z,15.17
2023-05-09T23:47:08.757Z,15.04
2023-05-09T23:57:10.290Z,15.02
